Time;durP1;ratioP1;P1;durP2;ratioP2;P2;SDS_P1;SDS_P2;PMS_P1;PMS_P2;Temp;Humidity;BMP_temperature;BMP_pressure;BME280_temperature;BME280_humidity;BME280_pressure;Samples;Min_cycle;Max_cycle;Signal;HPM_P1;HPM_P2
2021/12/13 00:01:05;;;;;;;15.48;8.77;;;10.00;99.90;;;;;;5096938;28;20040;-65
2021/12/13 00:03:47;;;;;;;21.55;9.50;;;10.00;99.90;;;;;;5097268;28;20052;-65
2021/12/13 00:06:18;;;;;;;29.80;11.25;;;10.00;99.90;;;;;;5115669;28;20035;-65
2021/12/13 00:08:50;;;;;;;21.73;10.15;;;10.00;99.90;;;;;;5115739;28;20138;-65
2021/12/13 00:11:22;;;;;;;18.10;9.52;;;10.20;99.90;;;;;;5096830;28;20070;-65
2021/12/13 00:13:54;;;;;;;16.48;8.35;;;10.10;99.90;;;;;;5114957;28;20058;-65
2021/12/13 00:16:33;;;;;;;20.75;9.98;;;10.00;99.90;;;;;;5114897;28;20044;-65
2021/12/13 00:19:08;;;;;;;18.73;9.02;;;10.00;99.90;;;;;;5097073;28;20432;-65
2021/12/13 00:21:38;;;;;;;13.32;8.07;;;10.00;99.90;;;;;;5114868;28;20052;-65
2021/12/13 00:24:26;;;;;;;24.98;11.23;;;10.00;99.90;;;;;;5097545;28;20188;-65
2021/12/13 00:27:07;;;;;;;13.98;7.30;;;10.00;99.90;;;;;;5113826;28;20517;-65
2021/12/13 00:29:45;;;;;;;21.20;9.82;;;10.00;99.90;;;;;;5115282;28;20039;-65
2021/12/13 00:32:22;;;;;;;20.30;10.68;;;10.00;99.90;;;;;;5115207;28;20135;-65
2021/12/13 00:34:49;;;;;;;18.23;8.50;;;10.00;99.90;;;;;;5114664;28;20100;-65
2021/12/13 00:37:32;;;;;;;22.50;10.27;;;10.20;99.90;;;;;;5114757;28;20044;-65
2021/12/13 00:40:10;;;;;;;22.57;10.33;;;10.00;99.90;;;;;;5114877;28;20051;-65
2021/12/13 00:43:07;;;;;;;19.92;9.50;;;10.00;99.90;;;;;;5114489;28;20305;-65
2021/12/13 00:45:36;;;;;;;22.08;10.75;;;10.00;99.90;;;;;;5091475;28;20255;-65
2021/12/13 00:48:04;;;;;;;21.60;9.05;;;10.00;99.90;;;;;;5096438;28;20506;-66
2021/12/13 00:50:57;;;;;;;17.55;8.13;;;10.00;99.90;;;;;;5096170;28;20055;-65
2021/12/13 00:53:23;;;;;;;22.48;9.85;;;10.00;99.90;;;;;;5075810;28;20059;-65
2021/12/13 00:55:50;;;;;;;17.75;8.90;;;10.00;99.90;;;;;;5114959;28;20032;-65
2021/12/13 00:58:20;;;;;;;33.08;11.65;;;10.00;99.90;;;;;;5115038;28;20078;-65
2021/12/13 01:01:08;;;;;;;21.85;10.20;;;10.00;99.90;;;;;;5114210;28;20048;-65
2021/12/13 01:03:48;;;;;;;33.90;11.85;;;10.00;99.90;;;;;;5082642;28;20475;-65
2021/12/13 01:06:58;;;;;;;26.05;10.27;;;10.00;99.90;;;;;;5096249;28;20444;-65
2021/12/13 01:10:01;;;;;;;19.10;9.50;;;10.00;99.90;;;;;;5115338;28;20388;-65
2021/12/13 01:12:28;;;;;;;16.42;9.10;;;10.00;99.90;;;;;;5114132;28;20056;-65
2021/12/13 01:15:05;;;;;;;23.30;10.25;;;10.00;99.90;;;;;;5114845;28;20434;-65
2021/12/13 01:17:44;;;;;;;19.45;9.38;;;10.00;99.90;;;;;;5114259;28;20502;-65
2021/12/13 01:20:27;;;;;;;21.30;10.30;;;10.00;99.90;;;;;;5114138;28;20051;-65
2021/12/13 01:23:01;;;;;;;21.58;10.05;;;10.00;99.90;;;;;;5095998;28;20047;-65
2021/12/13 01:25:42;;;;;;;22.75;10.68;;;10.00;99.90;;;;;;5096343;28;20051;-65
2021/12/13 01:28:18;;;;;;;23.27;10.88;;;10.00;99.90;;;;;;5114561;28;20109;-65
2021/12/13 01:30:58;;;;;;;20.05;10.85;;;10.00;99.90;;;;;;5113996;28;20103;-65
2021/12/13 01:33:28;;;;;;;24.88;11.90;;;10.00;99.90;;;;;;5096033;28;20139;-65
2021/12/13 01:35:56;;;;;;;28.70;12.88;;;10.00;99.90;;;;;;5114379;28;20133;-65
2021/12/13 01:38:35;;;;;;;24.65;11.13;;;10.10;99.90;;;;;;5117267;28;20051;-65
2021/12/13 01:41:23;;;;;;;23.25;11.57;;;10.10;99.90;;;;;;5118040;28;20104;-65
2021/12/13 01:43:56;;;;;;;34.80;13.02;;;10.00;99.90;;;;;;5116744;28;20396;-65
2021/12/13 01:46:24;;;;;;;32.85;14.43;;;10.10;99.90;;;;;;5100685;28;20051;-65
2021/12/13 01:48:52;;;;;;;33.08;13.52;;;10.10;99.90;;;;;;5117763;28;20039;-65
2021/12/13 01:51:23;;;;;;;38.03;15.45;;;10.10;99.90;;;;;;5099765;28;20089;-65
2021/12/13 01:53:59;;;;;;;39.10;15.63;;;10.10;99.90;;;;;;5118220;28;20081;-65
2021/12/13 01:56:42;;;;;;;40.45;16.08;;;10.30;99.90;;;;;;5117879;28;20039;-65
2021/12/13 01:59:52;;;;;;;40.53;16.67;;;10.00;99.90;;;;;;5117668;28;20052;-65
2021/12/13 02:02:36;;;;;;;49.42;16.98;;;10.10;99.90;;;;;;5100395;28;20421;-65
2021/12/13 02:05:12;;;;;;;45.47;17.20;;;10.10;99.90;;;;;;5118086;28;20036;-65
2021/12/13 02:07:43;;;;;;;53.00;18.13;;;10.10;99.90;;;;;;5117915;28;20060;-65
2021/12/13 02:10:21;;;;;;;51.22;18.23;;;10.10;99.90;;;;;;5099173;28;20051;-65
2021/12/13 02:12:54;;;;;;;41.13;17.05;;;10.20;99.90;;;;;;5099270;28;20040;-65
2021/12/13 02:18:07;;;;;;;35.05;15.05;;;10.20;99.90;;;;;;5117248;28;20109;-64
2021/12/13 02:20:37;;;;;;;35.72;14.73;;;10.10;99.90;;;;;;5117413;28;20476;-65
2021/12/13 02:23:04;;;;;;;40.78;16.45;;;10.10;99.90;;;;;;5099798;28;20051;-65
2021/12/13 02:25:57;;;;;;;40.33;14.35;;;10.10;99.90;;;;;;5098895;28;20495;-65
2021/12/13 02:28:29;;;;;;;31.70;13.35;;;10.10;99.90;;;;;;5113762;28;20055;-64
2021/12/13 02:31:02;;;;;;;43.22;15.52;;;10.10;99.90;;;;;;5116489;28;20445;-65
2021/12/13 02:33:33;;;;;;;;;;;10.20;99.90;;;;;;5117366;28;20046;-64
2021/12/13 02:36:03;;;;;;;33.25;12.70;;;10.10;99.90;;;;;;5117363;28;20244;-64
2021/12/13 02:38:28;;;;;;;30.02;10.45;;;10.10;99.90;;;;;;5116864;28;20040;-64
2021/12/13 02:40:55;;;;;;;25.55;11.30;;;10.10;99.90;;;;;;5116752;28;20047;-64
2021/12/13 02:43:24;;;;;;;27.08;11.75;;;10.10;99.90;;;;;;5116685;28;20047;-64
2021/12/13 02:45:53;;;;;;;22.08;10.35;;;10.30;99.90;;;;;;5116632;28;20047;-64
2021/12/13 02:48:30;;;;;;;25.20;10.93;;;9.90;99.90;;;;;;5097353;28;20058;-64
2021/12/13 02:50:59;;;;;;;19.90;10.10;;;10.10;99.90;;;;;;5116617;28;20044;-65
2021/12/13 02:53:40;;;;;;;21.83;10.65;;;10.20;99.90;;;;;;5116447;28;20058;-64
2021/12/13 02:56:06;;;;;;;25.20;11.13;;;10.10;99.90;;;;;;5116412;28;20088;-64
2021/12/13 02:58:34;;;;;;;30.15;11.20;;;10.10;99.90;;;;;;5082108;28;20079;-64
2021/12/13 03:01:35;;;;;;;22.77;9.57;;;10.40;99.90;;;;;;5116386;28;20051;-64
2021/12/13 03:04:09;;;;;;;20.75;9.75;;;10.20;99.90;;;;;;5116651;28;20468;-64
2021/12/13 03:06:40;;;;;;;19.85;10.50;;;10.20;99.90;;;;;;5116364;28;20040;-64
2021/12/13 03:09:16;;;;;;;21.85;9.73;;;10.00;99.90;;;;;;5116541;28;20139;-64
2021/12/13 03:11:45;;;;;;;24.00;10.60;;;10.10;99.90;;;;;;5098717;28;20116;-64
2021/12/13 03:14:21;;;;;;;14.93;9.77;;;10.10;99.90;;;;;;5116137;28;20464;-64
2021/12/13 03:17:05;;;;;;;21.70;10.85;;;10.30;99.90;;;;;;5116860;28;20040;-65
2021/12/13 03:19:40;;;;;;;19.05;10.90;;;10.20;99.90;;;;;;5116906;28;20100;-65
2021/12/13 03:22:29;;;;;;;25.00;11.30;;;10.10;99.90;;;;;;5115911;28;20047;-64
2021/12/13 03:25:13;;;;;;;19.08;11.00;;;10.00;99.90;;;;;;5115946;28;20142;-64
2021/12/13 03:27:44;;;;;;;26.08;13.07;;;10.10;99.90;;;;;;5098800;28;20054;-65
2021/12/13 03:30:18;;;;;;;24.27;13.13;;;10.00;99.90;;;;;;5115541;28;20518;-65
2021/12/13 03:33:06;;;;;;;30.33;14.55;;;10.10;99.90;;;;;;5116102;28;20031;-64
2021/12/13 03:35:38;;;;;;;24.30;13.68;;;10.10;99.90;;;;;;5116243;28;20048;-65
2021/12/13 03:38:16;;;;;;;23.10;13.40;;;10.10;99.90;;;;;;5098023;28;20055;-65
2021/12/13 03:40:43;;;;;;;23.27;13.00;;;10.20;99.90;;;;;;5115347;28;20789;-65
2021/12/13 03:43:16;;;;;;;23.58;12.45;;;10.30;99.90;;;;;;5116416;28;20046;-65
2021/12/13 03:45:47;;;;;;;23.00;11.93;;;9.90;99.90;;;;;;5116380;28;20387;-64
2021/12/13 03:48:17;;;;;;;25.25;12.85;;;10.10;99.90;;;;;;5116075;28;20101;-65
2021/12/13 03:50:47;;;;;;;22.63;10.65;;;10.30;99.90;;;;;;5115349;28;20050;-65
2021/12/13 03:53:18;;;;;;;19.75;10.50;;;10.10;99.90;;;;;;5115273;28;20054;-65
2021/12/13 03:55:48;;;;;;;19.90;10.35;;;10.30;99.90;;;;;;5115251;28;20036;-65
2021/12/13 03:58:18;;;;;;;22.38;10.57;;;10.10;99.90;;;;;;5115221;28;20128;-65
2021/12/13 04:00:59;;;;;;;24.23;11.18;;;10.00;99.90;;;;;;5115045;28;20130;-65
2021/12/13 04:03:27;;;;;;;22.48;9.63;;;10.00;99.90;;;;;;5097024;28;20076;-64
2021/12/13 04:05:53;;;;;;;17.77;9.63;;;10.10;99.90;;;;;;5097123;28;20133;-64
2021/12/13 04:08:21;;;;;;;19.38;9.63;;;10.40;99.90;;;;;;5115156;28;20127;-64
2021/12/13 04:10:51;;;;;;;21.83;9.25;;;10.00;99.90;;;;;;5097328;28;20062;-64
2021/12/13 04:13:19;;;;;;;19.27;9.32;;;10.00;99.90;;;;;;5115345;28;20055;-64
2021/12/13 04:16:14;;;;;;;17.80;8.05;;;10.00;99.90;;;;;;5080565;28;20044;-64
2021/12/13 04:21:25;;;;;;;14.95;7.45;;;10.00;99.90;;;;;;5097740;28;20051;-65
2021/12/13 04:24:02;;;;;;;15.15;8.07;;;10.00;99.90;;;;;;5115578;28;20078;-64
2021/12/13 04:26:31;;;;;;;17.42;7.22;;;10.20;99.90;;;;;;5114467;28;20484;-65
2021/12/13 04:28:59;;;;;;;13.63;7.22;;;10.00;99.90;;;;;;5097013;28;20130;-65
2021/12/13 04:31:29;;;;;;;12.60;6.53;;;10.00;99.90;;;;;;5114634;28;20086;-64
2021/12/13 04:34:01;;;;;;;16.52;6.57;;;10.00;99.90;;;;;;5115210;28;20365;-64
2021/12/13 04:36:30;;;;;;;12.88;6.45;;;10.20;99.90;;;;;;5114145;28;20126;-65
2021/12/13 04:39:27;;;;;;;13.00;5.80;;;9.90;99.90;;;;;;5114913;28;20084;-64
2021/12/13 04:42:00;;;;;;;14.63;5.93;;;10.00;99.90;;;;;;5114494;28;20441;-64
2021/12/13 04:44:37;;;;;;;17.73;5.68;;;10.20;99.90;;;;;;5114480;28;20052;-65
2021/12/13 04:47:17;;;;;;;14.02;5.97;;;9.80;99.90;;;;;;5114718;28;20040;-65
2021/12/13 04:49:46;;;;;;;15.85;6.05;;;9.80;99.90;;;;;;5114377;28;20051;-64
2021/12/13 04:52:18;;;;;;;15.13;5.93;;;10.10;99.90;;;;;;5096272;28;20044;-64
2021/12/13 04:54:49;;;;;;;14.70;5.80;;;10.10;99.90;;;;;;5115191;28;20044;-64
2021/12/13 04:57:15;;;;;;;13.75;5.68;;;9.90;99.90;;;;;;5114799;28;20035;-64
2021/12/13 04:59:58;;;;;;;12.55;5.03;;;10.00;99.90;;;;;;5114302;28;20051;-65
2021/12/13 05:02:25;;;;;;;12.07;4.60;;;9.90;99.90;;;;;;5097201;28;20058;-65
2021/12/13 05:04:54;;;;;;;9.13;4.43;;;9.90;99.90;;;;;;5114195;28;20475;-65
2021/12/13 05:07:21;;;;;;;8.73;3.83;;;10.00;99.90;;;;;;5113870;28;20047;-65
2021/12/13 05:09:48;;;;;;;10.85;4.22;;;9.90;99.90;;;;;;5096072;28;20050;-65
2021/12/13 05:12:18;;;;;;;9.32;4.50;;;9.80;99.90;;;;;;5113549;28;20039;-65
2021/12/13 05:14:55;;;;;;;9.20;4.38;;;9.90;99.90;;;;;;5114431;28;20122;-65
2021/12/13 05:17:24;;;;;;;9.65;4.20;;;9.80;99.90;;;;;;5114555;28;20044;-65
2021/12/13 05:20:13;;;;;;;11.15;4.93;;;9.80;99.90;;;;;;5114072;28;20073;-65
2021/12/13 05:23:15;;;;;;;11.27;4.38;;;9.70;99.90;;;;;;5099960;28;20091;-65
2021/12/13 05:25:45;;;;;;;11.18;5.15;;;9.70;99.90;;;;;;5096047;28;20521;-65
2021/12/13 05:28:45;;;;;;;10.25;5.63;;;9.70;99.90;;;;;;5114030;28;20044;-65
2021/12/13 05:31:17;;;;;;;11.68;5.72;;;9.80;99.90;;;;;;5096079;28;20439;-65
2021/12/13 05:33:45;;;;;;;11.40;6.75;;;10.10;99.90;;;;;;5114056;28;20044;-65
2021/12/13 05:36:22;;;;;;;12.88;6.63;;;9.80;99.90;;;;;;5096645;28;20047;-65
2021/12/13 05:38:50;;;;;;;15.43;7.75;;;9.70;99.90;;;;;;5114278;28;20039;-65
2021/12/13 05:41:23;;;;;;;14.85;8.65;;;9.70;99.90;;;;;;5113827;28;20047;-65
2021/12/13 05:43:52;;;;;;;14.30;6.97;;;10.00;99.90;;;;;;5113890;28;20091;-65
2021/12/13 05:46:23;;;;;;;15.48;6.10;;;9.80;99.90;;;;;;5114156;28;20046;-65
2021/12/13 05:49:02;;;;;;;11.90;5.57;;;9.70;99.90;;;;;;5113855;28;20086;-65
2021/12/13 05:51:40;;;;;;;11.25;5.40;;;9.70;99.90;;;;;;5113830;28;20092;-65
2021/12/13 05:54:14;;;;;;;11.02;5.03;;;9.60;99.90;;;;;;5113712;28;20153;-65
2021/12/13 05:56:44;;;;;;;;;;;9.80;99.90;;;;;;5114029;28;20670;-65
2021/12/13 05:59:21;;;;;;;9.75;5.40;;;9.60;99.90;;;;;;5113423;28;20367;-65
2021/12/13 06:02:15;;;;;;;11.50;6.05;;;9.70;99.90;;;;;;5095940;28;20114;-64
2021/12/13 06:05:08;;;;;;;11.32;4.80;;;9.70;99.90;;;;;;5096598;28;20058;-64
2021/12/13 06:07:38;;;;;;;10.40;5.50;;;9.60;99.90;;;;;;5095737;28;20060;-64
2021/12/13 06:10:13;;;;;;;8.73;4.88;;;9.70;99.90;;;;;;5096522;28;20056;-65
2021/12/13 06:12:46;;;;;;;11.77;6.05;;;9.60;99.90;;;;;;5113629;28;20525;-65
2021/12/13 06:15:23;;;;;;;11.32;5.03;;;9.60;99.90;;;;;;5114445;28;20083;-65
2021/12/13 06:18:04;;;;;;;10.68;5.40;;;9.70;99.90;;;;;;5113588;28;20475;-65
2021/12/13 06:20:32;;;;;;;8.70;5.00;;;9.60;99.90;;;;;;5114654;28;20379;-65
2021/12/13 06:23:29;;;;;;;11.70;5.60;;;9.60;99.90;;;;;;5113398;28;20054;-65
2021/12/13 06:26:07;;;;;;;11.10;5.35;;;9.60;99.90;;;;;;5100923;28;20043;-64
2021/12/13 06:28:40;;;;;;;9.77;5.13;;;9.60;99.90;;;;;;5117333;28;20494;-64
2021/12/13 06:31:12;;;;;;;12.48;5.95;;;9.90;99.90;;;;;;5117038;28;20503;-65
2021/12/13 06:33:47;;;;;;;9.95;5.35;;;9.50;99.90;;;;;;5117045;28;20048;-65
2021/12/13 06:36:13;;;;;;;12.45;5.28;;;9.60;99.90;;;;;;5117390;28;20059;-65
2021/12/13 06:38:53;;;;;;;10.20;5.60;;;9.80;99.90;;;;;;5099694;28;20055;-65
2021/12/13 06:41:32;;;;;;;10.77;5.93;;;9.60;99.90;;;;;;5099472;28;20341;-65
2021/12/13 06:44:17;;;;;;;11.20;5.63;;;9.60;99.90;;;;;;5117622;28;20043;-65
2021/12/13 06:46:45;;;;;;;12.93;6.03;;;9.70;99.90;;;;;;5117287;28;20058;-66
2021/12/13 06:49:13;;;;;;;11.65;6.43;;;9.80;99.90;;;;;;5116663;28;20047;-65
2021/12/13 06:51:54;;;;;;;13.13;5.57;;;9.50;99.90;;;;;;5116589;28;20054;-65
2021/12/13 06:54:43;;;;;;;11.93;5.68;;;9.60;99.90;;;;;;5098447;28;20467;-66
2021/12/13 06:57:13;;;;;;;13.25;6.35;;;9.60;99.90;;;;;;5116520;28;20065;-65
2021/12/13 06:59:59;;;;;;;13.73;6.00;;;9.50;99.90;;;;;;5099145;28;20039;-65
2021/12/13 07:02:28;;;;;;;8.68;4.78;;;9.50;99.90;;;;;;5097787;28;20513;-65
2021/12/13 07:05:08;;;;;;;10.95;5.15;;;9.70;99.90;;;;;;5116389;28;20039;-65
2021/12/13 07:07:39;;;;;;;8.85;5.53;;;9.50;99.90;;;;;;5116920;28;20055;-65
2021/12/13 07:10:14;;;;;;;11.43;5.32;;;9.50;99.90;;;;;;5116262;28;20505;-65
2021/12/13 07:12:50;;;;;;;9.00;5.35;;;9.50;99.90;;;;;;5117093;28;20044;-65
2021/12/13 07:15:39;;;;;;;10.32;4.95;;;9.50;99.90;;;;;;5116837;28;20048;-65
2021/12/13 07:18:10;;;;;;;12.50;5.60;;;9.50;99.90;;;;;;5084345;28;20131;-65
2021/12/13 07:21:05;;;;;;;10.38;5.80;;;9.50;99.90;;;;;;5116183;28;20044;-66
2021/12/13 07:23:52;;;;;;;11.50;6.07;;;9.60;99.90;;;;;;5115934;28;20483;-65
2021/12/13 07:26:36;;;;;;;9.20;5.75;;;9.50;99.90;;;;;;5115949;28;20550;-65
2021/12/13 07:29:16;;;;;;;10.27;5.40;;;9.50;99.90;;;;;;5097912;28;20433;-65
2021/12/13 07:31:44;;;;;;;10.35;6.03;;;9.50;99.90;;;;;;5115915;28;20122;-65
2021/12/13 07:34:14;;;;;;;10.75;6.65;;;9.50;99.90;;;;;;5115552;28;20532;-65
2021/12/13 07:36:40;;;;;;;10.18;6.25;;;9.70;99.90;;;;;;5098095;28;20054;-66
2021/12/13 07:39:15;;;;;;;11.18;5.97;;;9.50;99.90;;;;;;5116210;28;20069;-66
2021/12/13 07:41:51;;;;;;;10.48;6.15;;;9.50;99.90;;;;;;5116253;28;20088;-66
2021/12/13 07:44:38;;;;;;;10.52;6.30;;;9.60;99.90;;;;;;5097970;28;20048;-65
2021/12/13 07:47:24;;;;;;;14.02;6.93;;;9.40;99.90;;;;;;5098471;28;20124;-66
2021/12/13 07:49:56;;;;;;;11.43;6.80;;;9.70;99.90;;;;;;5115808;28;20047;-66
2021/12/13 07:52:35;;;;;;;13.07;7.78;;;9.50;99.90;;;;;;5115661;28;20039;-65
2021/12/13 07:55:19;;;;;;;15.00;7.93;;;9.50;99.90;;;;;;5098020;28;20055;-66
2021/12/13 07:57:46;;;;;;;14.38;7.65;;;9.70;99.90;;;;;;5115331;28;20046;-66
2021/12/13 08:00:17;;;;;;;14.18;9.50;;;9.50;99.90;;;;;;5098180;28;20382;-66
2021/12/13 08:02:54;;;;;;;14.20;8.52;;;9.40;99.90;;;;;;5115062;28;20043;-66
2021/12/13 08:05:25;;;;;;;16.50;8.63;;;9.50;99.90;;;;;;5115557;28;20052;-66
2021/12/13 08:07:58;;;;;;;14.15;8.82;;;9.60;99.90;;;;;;5114666;28;20056;-66
2021/12/13 08:10:35;;;;;;;15.73;8.85;;;9.60;99.90;;;;;;5114933;28;20487;-66
2021/12/13 08:13:05;;;;;;;15.32;8.80;;;9.50;99.90;;;;;;5096767;28;20495;-66
2021/12/13 08:15:42;;;;;;;17.60;9.50;;;9.50;99.90;;;;;;5114749;28;20101;-66
2021/12/13 08:18:20;;;;;;;18.00;9.90;;;9.50;99.90;;;;;;5115127;28;20047;-66
2021/12/13 08:21:05;;;;;;;14.85;9.90;;;9.50;99.90;;;;;;5114803;28;20043;-66
2021/12/13 08:23:41;;;;;;;17.88;10.05;;;9.50;99.90;;;;;;5114612;28;20051;-66
2021/12/13 08:26:10;;;;;;;24.23;12.23;;;9.50;99.90;;;;;;5115253;28;20097;-66
2021/12/13 08:28:39;;;;;;;18.85;11.70;;;9.50;99.90;;;;;;5115194;28;20442;-66
2021/12/13 08:31:08;;;;;;;18.90;11.93;;;9.40;99.90;;;;;;5079607;28;20052;-66
2021/12/13 08:33:43;;;;;;;20.08;12.00;;;9.50;99.90;;;;;;5114644;28;20043;-66
2021/12/13 08:36:15;;;;;;;19.65;11.40;;;9.50;99.90;;;;;;5096655;28;20040;-66
2021/12/13 08:39:03;;;;;;;19.55;11.45;;;9.50;99.90;;;;;;5114564;28;20109;-66
2021/12/13 08:42:11;;;;;;;19.98;12.05;;;9.50;99.90;;;;;;5096561;28;20507;-65
2021/12/13 08:44:58;;;;;;;22.42;12.50;;;9.50;99.90;;;;;;5015344;28;20041;-65
2021/12/13 08:47:32;;;;;;;20.38;12.50;;;9.60;99.90;;;;;;5112387;28;20059;-65
2021/12/13 08:50:03;;;;;;;22.60;12.38;;;9.50;99.90;;;;;;5114441;28;20118;-65
2021/12/13 08:52:39;;;;;;;26.08;14.10;;;9.50;99.90;;;;;;5114597;28;20503;-65
2021/12/13 08:55:11;;;;;;;23.15;13.60;;;9.50;99.90;;;;;;5096701;28;20082;-65
2021/12/13 08:57:45;;;;;;;23.38;13.55;;;9.60;99.90;;;;;;5114279;28;20043;-66
2021/12/13 09:00:14;;;;;;;22.33;13.50;;;9.50;99.90;;;;;;5096264;28;20051;-66
2021/12/13 09:02:50;;;;;;;23.45;13.85;;;9.50;99.90;;;;;;5114457;28;20513;-65
2021/12/13 09:05:25;;;;;;;26.98;15.10;;;9.60;99.90;;;;;;5114798;28;20051;-64
2021/12/13 09:07:58;;;;;;;24.95;13.60;;;9.60;99.90;;;;;;5113853;28;20055;-64
2021/12/13 09:10:41;;;;;;;24.67;15.80;;;9.60;99.90;;;;;;5114162;28;20414;-66
2021/12/13 09:13:09;;;;;;;26.52;15.75;;;9.60;99.90;;;;;;5111181;28;20112;-66
2021/12/13 09:15:36;;;;;;;26.30;16.05;;;9.50;99.90;;;;;;5109766;28;20083;-66
2021/12/13 09:18:05;;;;;;;27.90;15.15;;;9.60;99.90;;;;;;5110429;28;20074;-66
2021/12/13 09:20:45;;;;;;;21.98;14.13;;;9.60;99.90;;;;;;5109689;28;20054;-65
2021/12/13 09:23:29;;;;;;;27.38;15.63;;;10.00;99.90;;;;;;5092610;28;20047;-66
2021/12/13 09:26:07;;;;;;;26.73;14.75;;;9.70;99.90;;;;;;5093398;28;20130;-65
2021/12/13 09:29:01;;;;;;;26.55;15.52;;;9.60;99.90;;;;;;5074395;28;20062;-65
2021/12/13 09:31:34;;;;;;;22.55;14.88;;;9.60;99.90;;;;;;5107518;28;20483;-65
2021/12/13 09:34:20;;;;;;;22.73;14.57;;;9.80;99.90;;;;;;5109486;28;20124;-66
2021/12/13 09:36:51;;;;;;;24.92;14.65;;;9.90;99.90;;;;;;5109687;28;20048;-66
2021/12/13 09:39:26;;;;;;;23.23;14.80;;;9.70;99.90;;;;;;5110256;28;20055;-67
2021/12/13 09:42:05;;;;;;;19.42;12.73;;;9.70;99.90;;;;;;5111565;28;20044;-66
2021/12/13 09:44:44;;;;;;;21.38;13.90;;;9.70;99.90;;;;;;5110051;28;20062;-67
2021/12/13 09:47:15;;;;;;;21.60;13.63;;;9.60;99.90;;;;;;5109364;28;20580;-67
2021/12/13 09:49:57;;;;;;;24.75;14.65;;;9.70;99.90;;;;;;5110409;28;20057;-67
2021/12/13 09:52:28;;;;;;;23.05;13.63;;;9.70;99.90;;;;;;5109264;28;20082;-68
2021/12/13 09:55:34;;;;;;;20.58;13.55;;;9.70;99.90;;;;;;5091231;28;20418;-68
2021/12/13 09:58:16;;;;;;;21.63;13.32;;;9.70;99.90;;;;;;5110768;28;20051;-67
2021/12/13 10:01:22;;;;;;;20.20;13.25;;;9.70;99.90;;;;;;5113342;28;20078;-67
2021/12/13 10:03:57;;;;;;;22.00;12.82;;;9.80;99.90;;;;;;5114900;28;20047;-67
2021/12/13 10:06:49;;;;;;;22.17;14.23;;;9.80;99.90;;;;;;5113738;28;20044;-68
2021/12/13 10:09:19;;;;;;;22.73;14.07;;;9.80;99.90;;;;;;5094185;28;20087;-67
2021/12/13 10:11:50;;;;;;;20.17;12.88;;;9.80;99.90;;;;;;5113415;28;20478;-67
2021/12/13 10:14:23;;;;;;;20.25;12.40;;;9.80;99.90;;;;;;5114493;28;20470;-68
2021/12/13 10:16:53;;;;;;;22.20;13.00;;;9.90;99.90;;;;;;5113753;28;20153;-68
2021/12/13 10:19:36;;;;;;;18.33;12.38;;;9.90;99.90;;;;;;5113750;28;20088;-67
2021/12/13 10:22:04;;;;;;;19.52;12.68;;;9.90;99.90;;;;;;5113291;28;20090;-67
2021/12/13 10:24:46;;;;;;;22.20;12.10;;;9.90;99.90;;;;;;5113240;28;20049;-67
2021/12/13 10:27:16;;;;;;;21.55;12.38;;;9.80;99.90;;;;;;5094620;28;20051;-67
2021/12/13 10:29:46;;;;;;;17.23;12.40;;;10.50;99.90;;;;;;5094887;28;20058;-67
2021/12/13 10:32:26;;;;;;;21.58;12.25;;;9.90;99.90;;;;;;5112837;28;20047;-67
2021/12/13 10:34:57;;;;;;;18.38;11.57;;;9.80;99.90;;;;;;5095063;28;20046;-67
2021/12/13 10:37:28;;;;;;;17.92;11.90;;;9.90;99.90;;;;;;5093988;28;20160;-68
2021/12/13 10:40:20;;;;;;;19.15;12.35;;;9.90;99.90;;;;;;5113227;28;20077;-67
2021/12/13 10:43:02;;;;;;;19.98;11.70;;;9.90;99.90;;;;;;5112574;28;20506;-67
2021/12/13 10:45:43;;;;;;;19.85;12.02;;;9.90;99.90;;;;;;5112352;28;20040;-66
2021/12/13 10:48:11;;;;;;;22.35;14.63;;;9.90;99.90;;;;;;5112921;28;20122;-66
2021/12/13 10:50:50;;;;;;;19.70;13.30;;;9.90;99.90;;;;;;5113044;28;20095;-66
2021/12/13 10:53:19;;;;;;;20.40;12.25;;;9.80;99.90;;;;;;5112363;28;20070;-66
2021/12/13 10:56:04;;;;;;;17.58;11.50;;;10.30;99.90;;;;;;5113426;28;20043;-66
2021/12/13 10:58:34;;;;;;;17.58;11.70;;;10.00;99.90;;;;;;5113834;28;20056;-65
2021/12/13 11:01:07;;;;;;;20.33;12.38;;;10.00;99.90;;;;;;5113338;28;20082;-67
2021/12/13 11:03:34;;;;;;;19.80;11.55;;;10.00;99.90;;;;;;5078134;28;20062;-69
2021/12/13 11:06:01;;;;;;;18.42;12.27;;;10.00;99.90;;;;;;5095068;28;20040;-66
2021/12/13 11:08:29;;;;;;;21.38;12.23;;;10.00;99.90;;;;;;5112344;28;20051;-68
2021/12/13 11:11:05;;;;;;;20.63;11.57;;;10.00;99.90;;;;;;5092774;28;20085;-69
2021/12/13 11:13:35;;;;;;;18.25;11.73;;;10.10;99.90;;;;;;5112156;28;20468;-67
2021/12/13 11:16:18;;;;;;;22.55;14.15;;;10.10;99.90;;;;;;5112365;28;20425;-66
2021/12/13 11:18:45;;;;;;;;;;;10.00;99.90;;;;;;5112830;28;20043;-66
2021/12/13 11:21:27;;;;;;;20.23;11.52;;;10.10;99.90;;;;;;5112916;28;19966;-66
2021/12/13 11:23:56;;;;;;;17.20;11.07;;;10.10;99.90;;;;;;5112170;28;20116;-67
2021/12/13 11:26:32;;;;;;;18.55;11.27;;;10.00;99.90;;;;;;5111912;28;20051;-66
2021/12/13 11:29:00;;;;;;;17.65;10.60;;;10.00;99.90;;;;;;5094264;28;20047;-66
2021/12/13 11:31:32;;;;;;;17.17;11.35;;;10.00;99.90;;;;;;5111899;28;20466;-66
2021/12/13 11:34:04;;;;;;;16.73;10.90;;;10.10;99.90;;;;;;5111866;28;20079;-66
2021/12/13 11:37:00;;;;;;;19.45;11.35;;;10.20;99.90;;;;;;5111497;28;20301;-66
2021/12/13 11:39:44;;;;;;;19.42;11.95;;;10.10;99.90;;;;;;5111059;28;20361;-66
2021/12/13 11:42:48;;;;;;;15.48;9.93;;;10.10;99.90;;;;;;5092881;28;20451;-66
2021/12/13 11:45:34;;;;;;;16.23;11.13;;;10.10;99.90;;;;;;5110809;28;20054;-66
2021/12/13 11:48:38;;;;;;;20.13;11.07;;;10.20;99.90;;;;;;5111145;28;20043;-66
2021/12/13 11:51:33;;;;;;;20.05;11.57;;;10.00;99.90;;;;;;5111420;28;20047;-66
2021/12/13 11:54:17;;;;;;;16.52;11.20;;;9.80;99.90;;;;;;5110941;28;20043;-66
2021/12/13 11:57:05;;;;;;;24.38;12.93;;;10.10;99.90;;;;;;5111225;28;20090;-67
2021/12/13 12:00:00;;;;;;;19.90;11.20;;;10.10;99.90;;;;;;5111257;28;20044;-66
2021/12/13 12:03:06;;;;;;;14.43;9.27;;;10.10;99.90;;;;;;5111446;28;20093;-66
2021/12/13 12:06:17;;;;;;;14.07;9.63;;;10.20;99.90;;;;;;5093040;28;20063;-66
2021/12/13 12:08:53;;;;;;;15.85;10.65;;;10.10;99.90;;;;;;5079198;28;20047;-66
2021/12/13 12:11:31;;;;;;;18.85;9.93;;;10.20;99.90;;;;;;5092520;28;20494;-66
2021/12/13 12:14:04;;;;;;;14.05;9.02;;;10.80;99.90;;;;;;5111067;28;20094;-66
2021/12/13 12:16:36;;;;;;;13.95;9.23;;;10.30;99.90;;;;;;5111308;28;20387;-66
2021/12/13 12:19:03;;;;;;;14.70;9.30;;;10.10;99.90;;;;;;5092260;28;20058;-66
2021/12/13 12:21:31;;;;;;;15.50;10.30;;;10.20;99.90;;;;;;5110645;28;20050;-66
2021/12/13 12:24:22;;;;;;;13.85;9.15;;;10.20;99.90;;;;;;5110645;28;20093;-67
2021/12/13 12:27:05;;;;;;;15.60;9.30;;;10.30;99.90;;;;;;5110671;28;20054;-66
2021/12/13 12:29:35;;;;;;;13.52;9.35;;;10.30;99.90;;;;;;5110709;28;20457;-67
2021/12/13 12:32:04;;;;;;;17.75;10.95;;;10.30;99.90;;;;;;5111183;28;20084;-66
2021/12/13 12:34:33;;;;;;;15.45;9.65;;;10.30;99.90;;;;;;5110312;28;20093;-66
2021/12/13 12:36:58;;;;;;;14.00;9.07;;;9.80;99.90;;;;;;5092767;28;20043;-67
2021/12/13 12:40:02;;;;;;;17.23;9.70;;;10.40;99.90;;;;;;5111656;28;20054;-67
2021/12/13 12:42:43;;;;;;;16.48;9.80;;;10.30;99.90;;;;;;5098864;28;20108;-66
2021/12/13 12:45:30;;;;;;;16.20;9.10;;;10.30;99.90;;;;;;5110160;28;20040;-66
2021/12/13 12:48:09;;;;;;;14.90;8.10;;;10.40;99.90;;;;;;5110783;28;20079;-67
2021/12/13 12:50:40;;;;;;;15.02;9.27;;;10.40;99.90;;;;;;5111562;28;20061;-67
2021/12/13 12:53:11;;;;;;;15.55;9.30;;;10.30;99.90;;;;;;5110631;28;20047;-67
2021/12/13 12:55:49;;;;;;;13.23;8.80;;;10.30;99.90;;;;;;5109931;28;20125;-67
2021/12/13 12:58:19;;;;;;;14.40;8.45;;;10.30;99.90;;;;;;5110623;28;20047;-67
2021/12/13 13:00:47;;;;;;;15.10;9.68;;;10.30;99.90;;;;;;5092778;28;20048;-66
2021/12/13 13:03:29;;;;;;;12.93;8.75;;;10.40;99.90;;;;;;5109995;28;20128;-66
2021/12/13 13:06:07;;;;;;;16.27;9.68;;;10.40;99.90;;;;;;5110050;28;20036;-67
2021/12/13 13:08:37;;;;;;;16.63;9.15;;;10.30;99.90;;;;;;5075012;28;20440;-66
2021/12/13 13:13:47;;;;;;;12.82;8.60;;;10.30;99.90;;;;;;5109942;28;20383;-66
2021/12/13 13:16:18;;;;;;;15.35;9.30;;;10.30;99.90;;;;;;5075471;28;20043;-66
2021/12/13 13:18:44;;;;;;;17.33;9.60;;;10.30;99.90;;;;;;5110327;28;20047;-67
2021/12/13 13:21:10;;;;;;;17.73;10.02;;;10.30;99.90;;;;;;5110204;28;20052;-66
2021/12/13 13:23:49;;;;;;;16.00;9.73;;;10.30;99.90;;;;;;5110056;28;20044;-67
2021/12/13 13:26:17;;;;;;;17.98;9.80;;;10.40;99.90;;;;;;5110020;28;20040;-66
2021/12/13 13:28:50;;;;;;;16.60;10.05;;;10.30;99.90;;;;;;5091149;28;20052;-66
2021/12/13 13:31:28;;;;;;;16.67;10.73;;;10.30;99.90;;;;;;5109454;28;20110;-66
2021/12/13 13:34:04;;;;;;;17.10;10.55;;;10.20;99.90;;;;;;5116047;28;20059;-67